createdAt,value
2023-07-07T00:00:05.376Z,262.95
2023-07-07T00:02:12.705Z,164.13
2023-07-07T00:04:15.513Z,147.52
2023-07-07T00:06:18.240Z,117.57
2023-07-07T00:08:20.932Z,142.80
2023-07-07T00:10:23.694Z,271.63
2023-07-07T00:12:26.569Z,256.15
2023-07-07T00:14:30.314Z,166.40
2023-07-07T00:16:34.350Z,175.05
2023-07-07T00:20:42.372Z,180.98
2023-07-07T00:22:45.495Z,105.60
2023-07-07T00:24:48.278Z,255.20
2023-07-07T00:26:50.906Z,201.55
2023-07-07T00:28:53.597Z,206.20
2023-07-07T00:30:56.671Z,191.93
2023-07-07T00:32:59.623Z,165.63
2023-07-07T00:35:06.778Z,117.22
2023-07-07T00:37:09.427Z,69.63
2023-07-07T00:39:12.121Z,163.93
2023-07-07T00:41:15.869Z,170.55
2023-07-07T00:43:19.818Z,228.65
2023-07-07T00:45:22.879Z,247.00
2023-07-07T00:47:25.595Z,199.50
2023-07-07T00:49:29.182Z,162.60
2023-07-07T00:51:36.338Z,191.25
2023-07-07T00:53:40.042Z,206.20
2023-07-07T00:55:47.422Z,223.18
2023-07-07T00:57:51.437Z,241.27
2023-07-07T00:59:54.456Z,396.25
2023-07-07T01:02:02.457Z,257.58
2023-07-07T01:04:10.336Z,200.15
2023-07-07T01:06:16.864Z,190.80
2023-07-07T01:08:22.719Z,155.18
2023-07-07T01:10:27.233Z,221.98
2023-07-07T01:12:30.893Z,264.85
2023-07-07T01:14:33.747Z,174.35
2023-07-07T01:16:46.416Z,241.48
2023-07-07T01:18:53.950Z,160.18
2023-07-07T01:21:03.052Z,174.98
2023-07-07T01:23:38.002Z,145.18
2023-07-07T01:25:59.869Z,138.60
2023-07-07T01:28:33.112Z,193.15
2023-07-07T01:30:47.858Z,123.82
2023-07-07T01:34:58.661Z,353.98
2023-07-07T01:37:02.852Z,350.30
2023-07-07T01:39:05.820Z,189.77
2023-07-07T01:41:26.978Z,172.55
2023-07-07T01:43:37.116Z,163.55
2023-07-07T01:45:48.995Z,163.18
2023-07-07T01:47:56.300Z,168.13
2023-07-07T01:50:02.749Z,180.63
2023-07-07T01:52:12.062Z,132.95
2023-07-07T01:54:15.857Z,130.05
2023-07-07T01:56:21.703Z,135.63
2023-07-07T01:58:27.155Z,180.13
2023-07-07T02:00:31.487Z,297.88
2023-07-07T02:02:39.310Z,324.55
2023-07-07T02:04:42.207Z,277.73
2023-07-07T02:06:45.011Z,185.40
2023-07-07T02:08:47.860Z,174.75
2023-07-07T02:10:50.736Z,131.93
2023-07-07T02:12:53.608Z,100.30
2023-07-07T02:14:56.476Z,62.33
2023-07-07T02:16:59.262Z,138.00
2023-07-07T02:19:04.628Z,174.07
2023-07-07T02:21:07.322Z,178.88
2023-07-07T02:23:11.252Z,156.80
2023-07-07T02:25:13.936Z,165.25
2023-07-07T02:27:16.602Z,144.52
2023-07-07T02:29:20.316Z,178.88
2023-07-07T02:31:43.357Z,300.95
2023-07-07T02:33:47.148Z,395.25
2023-07-07T02:35:52.479Z,220.07
2023-07-07T02:37:56.708Z,121.82
2023-07-07T02:42:01.752Z,209.13
2023-07-07T02:44:04.651Z,201.98
2023-07-07T02:46:07.281Z,89.18
2023-07-07T02:48:10.553Z,87.20
2023-07-07T02:50:13.303Z,77.07
2023-07-07T02:52:19.092Z,73.75
2023-07-07T02:54:21.933Z,66.68
2023-07-07T02:56:26.412Z,145.55
2023-07-07T02:58:30.515Z,94.00
2023-07-07T03:00:33.086Z,54.60
2023-07-07T03:02:37.271Z,210.20
2023-07-07T03:04:40.151Z,63.85
2023-07-07T03:06:43.194Z,47.70
2023-07-07T03:08:48.868Z,57.47
2023-07-07T03:10:54.138Z,61.22
2023-07-07T03:12:57.092Z,93.95
2023-07-07T03:15:00.118Z,83.88
2023-07-07T03:17:07.177Z,83.82
2023-07-07T03:19:15.372Z,77.40
2023-07-07T03:21:27.723Z,121.25
2023-07-07T03:23:39.772Z,140.45
2023-07-07T03:25:46.851Z,117.18
2023-07-07T03:27:52.428Z,130.65
2023-07-07T03:30:09.755Z,116.60
2023-07-07T03:32:27.701Z,113.32
2023-07-07T03:34:39.743Z,99.75
2023-07-07T03:36:46.149Z,124.10
2023-07-07T03:38:52.070Z,99.40
2023-07-07T03:40:57.984Z,123.70
2023-07-07T03:43:05.505Z,191.80
2023-07-07T03:45:11.690Z,156.57
2023-07-07T03:49:18.937Z,157.85
2023-07-07T03:51:24.257Z,134.18
2023-07-07T03:53:29.641Z,124.55
2023-07-07T03:55:32.942Z,139.10
2023-07-07T03:57:38.277Z,128.43
2023-07-07T03:59:41.078Z,124.65
2023-07-07T04:01:43.696Z,120.78
2023-07-07T04:03:48.666Z,116.90
2023-07-07T04:07:54.255Z,175.18
2023-07-07T04:09:56.854Z,146.60
2023-07-07T04:11:59.461Z,183.57
2023-07-07T04:14:04.730Z,154.05
2023-07-07T04:16:10.254Z,132.02
2023-07-07T04:18:12.894Z,147.07
2023-07-07T04:20:15.769Z,157.68
2023-07-07T04:22:18.860Z,175.77
2023-07-07T04:24:25.069Z,237.77
2023-07-07T04:26:31.348Z,179.43
2023-07-07T04:28:37.270Z,211.52
2023-07-07T04:30:42.652Z,198.52
2023-07-07T04:32:45.205Z,179.50
2023-07-07T04:34:50.381Z,187.85
2023-07-07T04:36:53.031Z,164.60
2023-07-07T04:38:55.654Z,199.80
2023-07-07T04:41:05.813Z,217.77
2023-07-07T04:43:08.443Z,156.70
2023-07-07T04:45:11.870Z,161.40
2023-07-07T04:47:17.085Z,174.38
2023-07-07T04:49:19.819Z,192.48
2023-07-07T04:51:23.154Z,164.70
2023-07-07T04:53:26.873Z,187.13
2023-07-07T04:55:29.638Z,180.25
2023-07-07T04:57:32.364Z,159.60
2023-07-07T04:59:35.156Z,192.50
2023-07-07T05:01:38.852Z,190.23
2023-07-07T05:03:45.746Z,181.38
2023-07-07T05:05:49.455Z,195.55
2023-07-07T05:07:52.152Z,186.60
2023-07-07T05:09:54.966Z,187.93
2023-07-07T05:11:59.669Z,156.10
2023-07-07T05:14:04.797Z,186.50
2023-07-07T05:16:10.999Z,182.93
2023-07-07T05:18:13.766Z,294.40
2023-07-07T05:20:19.333Z,210.05
2023-07-07T05:22:23.488Z,162.18
2023-07-07T05:24:26.108Z,252.60
2023-07-07T05:26:29.509Z,291.85
2023-07-07T05:28:32.427Z,148.10
2023-07-07T05:30:35.149Z,146.80
2023-07-07T05:32:38.893Z,263.02
2023-07-07T05:34:41.552Z,221.68
2023-07-07T05:36:46.950Z,179.82
2023-07-07T05:38:49.853Z,160.32
2023-07-07T05:40:53.589Z,175.80
2023-07-07T05:42:56.430Z,160.45
2023-07-07T05:44:59.036Z,165.38
2023-07-07T05:47:01.799Z,125.93
2023-07-07T05:49:04.997Z,123.97
2023-07-07T05:51:14.213Z,117.32
2023-07-07T05:53:24.259Z,128.02
2023-07-07T05:55:30.275Z,69.35
2023-07-07T05:57:35.947Z,63.80
2023-07-07T05:59:40.032Z,92.65
2023-07-07T06:01:42.745Z,65.93
2023-07-07T06:03:47.522Z,48.25
2023-07-07T06:05:50.948Z,237.30
2023-07-07T06:07:57.072Z,51.63
2023-07-07T06:10:02.388Z,39.90
2023-07-07T06:12:07.189Z,215.18
2023-07-07T06:14:09.884Z,164.80
2023-07-07T06:16:13.314Z,40.10
2023-07-07T06:18:16.089Z,267.55
2023-07-07T06:20:22.168Z,261.85
2023-07-07T06:22:27.457Z,98.35
2023-07-07T06:24:30.190Z,235.05
2023-07-07T06:26:35.645Z,107.68
2023-07-07T06:28:40.083Z,33.03
2023-07-07T06:30:43.092Z,172.07
2023-07-07T06:32:51.287Z,70.82
2023-07-07T06:34:54.921Z,57.58
2023-07-07T06:36:57.706Z,281.45
2023-07-07T06:39:00.350Z,167.23
2023-07-07T06:41:03.180Z,174.13
2023-07-07T06:43:08.807Z,68.25
2023-07-07T06:45:11.996Z,240.88
2023-07-07T06:47:18.557Z,74.53
2023-07-07T06:49:21.388Z,359.20
2023-07-07T06:51:24.001Z,302.88
2023-07-07T06:53:26.773Z,246.10
2023-07-07T06:55:31.099Z,220.80
2023-07-07T06:57:33.803Z,185.57
2023-07-07T06:59:39.959Z,251.02
2023-07-07T07:01:48.890Z,313.50
2023-07-07T07:03:53.975Z,328.17
2023-07-07T07:05:58.027Z,338.98
2023-07-07T07:08:01.289Z,361.40
2023-07-07T07:10:05.442Z,324.00
2023-07-07T07:14:11.760Z,186.63
2023-07-07T07:16:17.201Z,296.98
2023-07-07T07:18:20.056Z,322.77
2023-07-07T07:20:22.837Z,290.08
2023-07-07T07:22:28.410Z,348.02
2023-07-07T07:24:33.235Z,399.42
2023-07-07T07:26:36.006Z,436.67
2023-07-07T07:28:39.109Z,366.85
2023-07-07T07:30:42.507Z,270.60
2023-07-07T07:32:49.447Z,299.63
2023-07-07T07:34:52.762Z,447.70
2023-07-07T07:36:57.293Z,395.63
2023-07-07T07:39:01.973Z,212.98
2023-07-07T07:41:05.839Z,152.85
2023-07-07T07:43:08.805Z,312.85
2023-07-07T07:45:27.983Z,205.90
2023-07-07T07:47:30.689Z,343.42
2023-07-07T07:49:36.281Z,144.63
2023-07-07T07:51:42.952Z,326.25
2023-07-07T07:53:46.047Z,365.30
2023-07-07T07:55:49.009Z,352.58
2023-07-07T07:57:53.424Z,141.50
2023-07-07T07:59:56.246Z,159.90
2023-07-07T08:02:02.088Z,378.85
2023-07-07T08:04:08.963Z,383.38
2023-07-07T08:06:18.199Z,305.48
2023-07-07T08:08:21.241Z,184.70
2023-07-07T08:10:24.227Z,373.08
2023-07-07T08:12:26.988Z,167.88
2023-07-07T08:14:32.049Z,162.80
2023-07-07T08:16:34.749Z,73.82
2023-07-07T08:18:37.518Z,251.70
2023-07-07T08:20:40.288Z,118.32
2023-07-07T08:22:46.437Z,47.00
2023-07-07T08:24:52.716Z,149.02
2023-07-07T08:29:24.725Z,206.57
2023-07-07T08:31:28.176Z,273.35
2023-07-07T08:33:31.010Z,202.88
2023-07-07T08:35:33.690Z,190.55
2023-07-07T08:37:36.323Z,248.80
2023-07-07T08:39:41.751Z,75.85
2023-07-07T08:41:49.466Z,204.45
2023-07-07T08:43:52.487Z,204.73
2023-07-07T08:46:03.634Z,172.93
2023-07-07T08:48:17.614Z,251.88
2023-07-07T08:50:30.100Z,91.07
2023-07-07T08:52:42.807Z,36.55
2023-07-07T08:54:56.387Z,40.47
2023-07-07T08:57:06.677Z,166.40
2023-07-07T08:59:21.627Z,38.47
2023-07-07T09:01:41.793Z,86.30
2023-07-07T09:03:59.559Z,147.88
2023-07-07T09:06:14.029Z,107.15
2023-07-07T09:08:35.351Z,59.92
2023-07-07T09:11:02.658Z,214.40
2023-07-07T09:13:13.921Z,192.70
2023-07-07T09:15:22.989Z,15.07
2023-07-07T09:17:30.397Z,92.95
2023-07-07T09:19:39.261Z,164.30
2023-07-07T09:21:44.548Z,13.57
2023-07-07T09:23:49.206Z,92.70
2023-07-07T09:26:01.873Z,17.10
2023-07-07T09:28:07.771Z,97.07
2023-07-07T09:30:20.948Z,92.85
2023-07-07T09:32:24.378Z,17.67
2023-07-07T09:34:26.997Z,138.45
2023-07-07T09:36:35.178Z,30.00
2023-07-07T09:38:51.412Z,39.60
2023-07-07T09:41:10.760Z,94.32
2023-07-07T09:43:26.064Z,121.47
2023-07-07T09:45:39.920Z,10.70
2023-07-07T09:47:52.336Z,9.60
2023-07-07T09:50:01.523Z,66.53
2023-07-07T09:52:17.236Z,25.55
2023-07-07T09:54:41.933Z,106.97
2023-07-07T09:56:54.180Z,49.15
2023-07-07T09:59:07.429Z,52.20
2023-07-07T10:01:11.673Z,94.33
2023-07-07T10:03:24.564Z,55.97
2023-07-07T10:05:31.742Z,68.72
2023-07-07T10:07:37.902Z,63.38
2023-07-07T10:09:41.807Z,31.83
2023-07-07T10:12:14.551Z,20.23
2023-07-07T10:14:15.887Z,14.27
2023-07-07T10:16:31.677Z,66.60
2023-07-07T10:18:41.712Z,18.38
2023-07-07T10:21:02.160Z,51.17
2023-07-07T10:23:10.095Z,36.25
2023-07-07T10:25:15.063Z,20.80
2023-07-07T10:27:27.171Z,29.05
2023-07-07T10:29:34.936Z,20.55
2023-07-07T10:31:44.200Z,63.25
2023-07-07T10:33:58.211Z,18.38
2023-07-07T10:38:19.800Z,56.70
2023-07-07T10:40:29.377Z,50.00
2023-07-07T10:42:35.793Z,12.48
2023-07-07T10:44:40.597Z,32.75
2023-07-07T10:46:43.725Z,58.50
2023-07-07T10:48:49.831Z,62.28
2023-07-07T10:51:00.933Z,69.07
2023-07-07T10:53:24.985Z,69.65
2023-07-07T10:55:34.208Z,12.50
2023-07-07T10:57:50.897Z,64.90
2023-07-07T11:00:03.974Z,38.58
2023-07-07T11:02:29.141Z,60.30
2023-07-07T11:05:06.610Z,69.55
2023-07-07T11:07:24.822Z,93.80
2023-07-07T11:09:42.089Z,26.88
2023-07-07T11:11:53.360Z,82.78
2023-07-07T11:14:13.203Z,38.72
2023-07-07T11:16:21.990Z,49.25
2023-07-07T11:18:40.625Z,34.97
2023-07-07T11:21:02.692Z,76.07
2023-07-07T11:23:27.950Z,37.70
2023-07-07T11:25:44.255Z,49.85
2023-07-07T11:28:05.352Z,41.35
2023-07-07T11:30:22.652Z,16.25
2023-07-07T11:32:31.830Z,54.25
2023-07-07T11:34:59.633Z,79.18
2023-07-07T11:37:12.332Z,76.10
2023-07-07T11:39:32.552Z,94.57
2023-07-07T11:41:53.838Z,80.55
2023-07-07T11:44:24.598Z,63.35
2023-07-07T11:46:59.024Z,59.65
2023-07-07T11:49:21.526Z,73.63
2023-07-07T11:51:37.202Z,85.57
2023-07-07T11:54:09.309Z,26.35
2023-07-07T11:56:32.292Z,79.30
2023-07-07T11:58:48.744Z,60.40
2023-07-07T12:00:55.138Z,47.03
2023-07-07T12:03:26.969Z,13.98
2023-07-07T12:05:35.054Z,60.55
2023-07-07T12:07:44.106Z,81.72
2023-07-07T12:09:51.872Z,32.83
2023-07-07T12:12:06.020Z,93.78
2023-07-07T12:14:27.501Z,31.48
2023-07-07T12:16:31.849Z,75.50
2023-07-07T12:18:40.038Z,55.65
2023-07-07T12:20:48.257Z,84.93
2023-07-07T12:22:52.154Z,55.35
2023-07-07T12:25:00.540Z,100.93
2023-07-07T12:27:13.542Z,31.83
2023-07-07T12:29:18.362Z,47.47
2023-07-07T12:31:22.665Z,26.77
2023-07-07T12:33:25.434Z,32.35
2023-07-07T12:35:43.747Z,18.63
2023-07-07T12:37:51.434Z,27.17
2023-07-07T12:39:59.715Z,77.13
2023-07-07T12:42:02.794Z,31.13
2023-07-07T12:44:07.648Z,39.30
2023-07-07T12:46:20.508Z,40.70
2023-07-07T12:48:28.543Z,88.78
2023-07-07T12:50:38.219Z,29.70
2023-07-07T12:52:43.995Z,31.55
2023-07-07T12:54:53.709Z,21.58
2023-07-07T12:57:02.131Z,40.75
2023-07-07T12:59:38.820Z,125.78
2023-07-07T13:01:42.828Z,76.90
2023-07-07T13:04:00.465Z,64.40
2023-07-07T13:06:27.595Z,129.07
2023-07-07T13:08:37.685Z,139.48
2023-07-07T13:10:49.337Z,25.08
2023-07-07T13:12:52.745Z,116.32
2023-07-07T13:15:03.060Z,55.78
2023-07-07T13:17:11.134Z,46.67
2023-07-07T13:19:13.812Z,136.48
2023-07-07T13:21:21.433Z,98.82
2023-07-07T13:23:29.722Z,41.13
2023-07-07T13:25:38.599Z,19.83
2023-07-07T13:27:41.261Z,44.90
2023-07-07T13:29:45.447Z,29.63
2023-07-07T13:31:48.275Z,58.63
2023-07-07T13:33:50.977Z,55.17
2023-07-07T13:35:57.673Z,72.18
2023-07-07T13:38:09.897Z,34.17
2023-07-07T13:40:18.997Z,48.28
2023-07-07T13:42:26.357Z,57.22
2023-07-07T13:44:29.157Z,62.03
2023-07-07T13:46:33.026Z,90.03
2023-07-07T13:48:35.734Z,60.17
2023-07-07T13:50:38.926Z,49.67
2023-07-07T13:54:49.464Z,17.10
2023-07-07T13:56:55.328Z,35.05
2023-07-07T13:58:59.516Z,39.47
2023-07-07T14:01:04.256Z,33.63
2023-07-07T14:03:14.518Z,41.03
2023-07-07T14:05:37.275Z,10.77
2023-07-07T14:07:44.932Z,62.90
2023-07-07T14:09:51.417Z,22.10
2023-07-07T14:11:57.247Z,45.47
2023-07-07T14:14:02.373Z,24.95
2023-07-07T14:16:09.392Z,58.10
2023-07-07T14:18:14.851Z,40.00
2023-07-07T14:20:21.572Z,41.95
2023-07-07T14:22:29.070Z,76.13
2023-07-07T14:24:32.772Z,50.25
2023-07-07T14:28:48.480Z,53.28
2023-07-07T14:30:56.178Z,117.65
2023-07-07T14:33:01.650Z,70.90
2023-07-07T14:35:14.926Z,96.85
2023-07-07T14:37:23.779Z,74.03
2023-07-07T14:39:33.653Z,76.70
2023-07-07T14:41:40.958Z,31.45
2023-07-07T14:44:04.176Z,49.65
2023-07-07T14:46:13.110Z,50.63
2023-07-07T14:48:20.039Z,78.82
2023-07-07T14:50:24.751Z,27.60
2023-07-07T14:52:33.929Z,43.75
2023-07-07T14:54:36.643Z,33.05
2023-07-07T14:56:48.340Z,135.40
2023-07-07T14:58:57.686Z,33.55
2023-07-07T15:01:06.224Z,48.25
2023-07-07T15:03:30.616Z,18.52
2023-07-07T15:07:37.635Z,32.10
2023-07-07T15:09:40.245Z,93.20
2023-07-07T15:11:46.611Z,49.83
2023-07-07T15:13:49.511Z,19.77
2023-07-07T15:15:55.431Z,40.40
2023-07-07T15:17:59.655Z,57.28
2023-07-07T15:20:02.723Z,36.88
2023-07-07T15:22:11.546Z,72.22
2023-07-07T15:24:14.714Z,14.43
2023-07-07T15:26:22.628Z,20.33
2023-07-07T15:28:28.134Z,14.02
2023-07-07T15:30:32.273Z,54.10
2023-07-07T15:32:35.061Z,27.80
2023-07-07T15:34:39.224Z,100.37
2023-07-07T15:36:44.206Z,25.23
2023-07-07T15:38:52.004Z,31.90
2023-07-07T15:40:54.683Z,21.10
2023-07-07T15:42:57.343Z,16.35
2023-07-07T15:45:02.711Z,40.72
2023-07-07T15:47:07.904Z,18.48
2023-07-07T15:49:12.565Z,14.48
2023-07-07T15:51:29.141Z,18.40
2023-07-07T15:53:31.730Z,95.45
2023-07-07T15:55:34.686Z,27.15
2023-07-07T15:57:37.573Z,18.23
2023-07-07T15:59:41.313Z,14.73
2023-07-07T16:03:51.852Z,35.25
2023-07-07T16:05:59.543Z,36.13
2023-07-07T16:08:12.785Z,15.65
2023-07-07T16:10:19.005Z,12.70
2023-07-07T16:12:23.641Z,19.55
2023-07-07T16:14:26.311Z,35.35
2023-07-07T16:16:33.861Z,36.97
2023-07-07T16:18:41.123Z,37.28
2023-07-07T16:20:47.080Z,47.00
2023-07-07T16:22:53.405Z,15.60
2023-07-07T16:24:55.982Z,57.78
2023-07-07T16:27:02.023Z,52.25
2023-07-07T16:29:12.508Z,38.95
2023-07-07T16:31:15.942Z,25.88
2023-07-07T16:33:18.675Z,17.35
2023-07-07T16:35:24.423Z,35.50
2023-07-07T16:37:28.120Z,60.58
2023-07-07T16:41:34.187Z,12.73
2023-07-07T16:43:37.589Z,40.63
2023-07-07T16:45:40.372Z,44.60
2023-07-07T16:47:44.612Z,75.68
2023-07-07T16:49:47.235Z,69.85
2023-07-07T16:51:57.756Z,49.97
2023-07-07T16:54:01.992Z,20.27
2023-07-07T16:56:14.936Z,72.85
2023-07-07T16:58:20.661Z,50.80
2023-07-07T17:00:25.047Z,31.58
2023-07-07T17:02:29.992Z,21.15
2023-07-07T17:04:32.989Z,19.88
2023-07-07T17:06:39.242Z,48.80
2023-07-07T17:08:44.468Z,73.85
2023-07-07T17:10:47.083Z,68.53
2023-07-07T17:12:50.071Z,66.53
2023-07-07T17:14:52.807Z,62.10
2023-07-07T17:16:56.479Z,73.03
2023-07-07T17:19:01.124Z,35.03
2023-07-07T17:21:06.926Z,90.85
2023-07-07T17:23:11.268Z,102.53
2023-07-07T17:25:18.306Z,66.13
2023-07-07T17:27:25.609Z,83.75
2023-07-07T17:29:28.352Z,32.78
2023-07-07T17:31:33.983Z,25.90
2023-07-07T17:33:36.643Z,57.63
2023-07-07T17:35:39.350Z,115.28
2023-07-07T17:37:42.613Z,99.43
2023-07-07T17:39:45.616Z,91.07
2023-07-07T17:41:51.058Z,97.38
2023-07-07T17:43:54.935Z,102.80
2023-07-07T17:45:58.686Z,73.47
2023-07-07T17:50:21.706Z,96.30
2023-07-07T17:52:24.414Z,102.40
2023-07-07T17:54:27.157Z,76.68
2023-07-07T17:56:32.017Z,91.35
2023-07-07T17:58:37.631Z,72.10
2023-07-07T18:00:46.708Z,95.43
2023-07-07T18:02:51.245Z,18.02
2023-07-07T18:04:53.949Z,23.60
2023-07-07T18:06:59.804Z,37.33
2023-07-07T18:09:03.819Z,38.65
2023-07-07T18:11:16.622Z,92.05
2023-07-07T18:13:19.262Z,92.63
2023-07-07T18:15:25.652Z,74.80
2023-07-07T18:17:50.039Z,73.07
2023-07-07T18:20:20.358Z,70.53
2023-07-07T18:22:15.036Z,46.83
2023-07-07T18:24:17.756Z,42.88
2023-07-07T18:26:29.055Z,76.90
2023-07-07T18:28:31.579Z,88.43
2023-07-07T18:30:43.530Z,79.93
2023-07-07T18:32:46.323Z,37.25
2023-07-07T18:34:48.961Z,28.40
2023-07-07T18:36:51.745Z,43.80
2023-07-07T18:38:54.494Z,43.73
2023-07-07T18:40:57.369Z,25.02
2023-07-07T18:43:01.488Z,21.67
2023-07-07T18:45:04.681Z,23.92
2023-07-07T18:47:14.747Z,91.32
2023-07-07T18:49:18.329Z,81.43
2023-07-07T18:51:23.069Z,114.18
2023-07-07T18:53:25.759Z,103.95
2023-07-07T18:55:30.516Z,97.93
2023-07-07T18:57:33.266Z,99.20
2023-07-07T18:59:35.975Z,61.40
2023-07-07T19:01:40.624Z,89.45
2023-07-07T19:03:46.413Z,104.00
2023-07-07T19:05:49.745Z,247.23
2023-07-07T19:07:54.469Z,260.20
2023-07-07T19:09:57.122Z,249.75
2023-07-07T19:11:59.814Z,390.60
2023-07-07T19:14:02.532Z,485.30
2023-07-07T19:16:14.680Z,231.00
2023-07-07T19:18:23.130Z,410.67
2023-07-07T19:20:28.222Z,400.67
2023-07-07T19:22:32.038Z,385.02
2023-07-07T19:24:40.152Z,376.10
2023-07-07T19:26:48.077Z,473.75
2023-07-07T19:28:50.964Z,339.15
2023-07-07T19:30:53.483Z,227.63
2023-07-07T19:32:56.230Z,260.95
2023-07-07T19:35:01.888Z,330.67
2023-07-07T19:37:09.905Z,419.35
2023-07-07T19:39:16.109Z,182.85
2023-07-07T19:41:21.091Z,140.25
2023-07-07T19:43:23.871Z,390.08
2023-07-07T19:45:26.495Z,458.85
2023-07-07T19:47:29.188Z,210.32
2023-07-07T19:49:32.699Z,242.45
2023-07-07T19:51:35.371Z,178.52
2023-07-07T19:53:40.663Z,351.30
2023-07-07T19:55:52.916Z,523.95
2023-07-07T19:57:55.532Z,245.07
2023-07-07T19:59:59.998Z,209.82
2023-07-07T20:02:02.650Z,354.48
2023-07-07T20:04:05.781Z,204.52
2023-07-07T20:06:12.038Z,228.50
2023-07-07T20:08:16.219Z,217.70
2023-07-07T20:10:23.825Z,278.73
2023-07-07T20:12:27.443Z,267.20
2023-07-07T20:14:30.693Z,148.32
2023-07-07T20:16:36.881Z,234.23
2023-07-07T20:18:40.353Z,129.00
2023-07-07T20:20:42.970Z,269.98
2023-07-07T20:22:47.648Z,373.33
2023-07-07T20:24:51.268Z,473.95
2023-07-07T20:27:04.234Z,193.18
2023-07-07T20:29:07.799Z,319.80
2023-07-07T20:31:14.505Z,340.35
2023-07-07T20:33:22.084Z,302.92
2023-07-07T20:35:24.797Z,461.13
2023-07-07T20:37:27.296Z,349.00
2023-07-07T20:39:31.138Z,423.95
2023-07-07T20:41:33.616Z,387.48
2023-07-07T20:43:39.103Z,310.38
2023-07-07T20:45:41.852Z,198.40
2023-07-07T20:47:44.775Z,265.70
2023-07-07T20:49:58.070Z,466.88
2023-07-07T20:52:00.667Z,456.00
2023-07-07T20:54:03.350Z,283.92
2023-07-07T20:56:11.811Z,269.45
2023-07-07T20:58:14.787Z,297.88
2023-07-07T21:00:26.245Z,250.05
2023-07-07T21:02:28.888Z,343.80
2023-07-07T21:04:31.626Z,387.85
2023-07-07T21:06:34.665Z,451.13
2023-07-07T21:08:37.416Z,369.30
2023-07-07T21:10:40.072Z,310.60
2023-07-07T21:12:42.752Z,379.33
2023-07-07T21:14:45.348Z,337.30
2023-07-07T21:16:50.653Z,412.83
2023-07-07T21:18:54.708Z,462.48
2023-07-07T21:20:57.871Z,455.27
2023-07-07T21:23:05.412Z,276.38
2023-07-07T21:25:11.723Z,419.30
2023-07-07T21:27:14.334Z,384.10
2023-07-07T21:29:17.044Z,169.38
2023-07-07T21:31:22.532Z,472.23
2023-07-07T21:33:27.800Z,394.40
2023-07-07T21:35:33.291Z,288.83
2023-07-07T21:37:35.884Z,362.92
2023-07-07T21:39:38.609Z,182.57
2023-07-07T21:41:43.846Z,320.98
2023-07-07T21:43:49.219Z,337.20
2023-07-07T21:45:51.968Z,234.65
2023-07-07T21:47:57.507Z,243.90
2023-07-07T21:50:02.830Z,303.33
2023-07-07T21:52:15.917Z,226.18
2023-07-07T21:54:18.789Z,279.50
2023-07-07T21:56:24.197Z,255.07
2023-07-07T21:58:26.801Z,221.80
2023-07-07T22:00:31.656Z,216.30
2023-07-07T22:02:34.240Z,256.60
2023-07-07T22:04:36.937Z,137.30
2023-07-07T22:06:42.356Z,166.85
2023-07-07T22:08:44.991Z,262.67
2023-07-07T22:10:51.545Z,210.30
2023-07-07T22:12:55.500Z,124.13
2023-07-07T22:14:58.262Z,142.15
2023-07-07T22:17:02.216Z,169.52
2023-07-07T22:19:05.708Z,109.32
2023-07-07T22:21:13.248Z,111.22
2023-07-07T22:23:18.998Z,148.85
2023-07-07T22:25:21.808Z,154.50
2023-07-07T22:27:24.337Z,100.72
2023-07-07T22:29:28.224Z,119.10
2023-07-07T22:31:30.826Z,99.35
2023-07-07T22:33:36.081Z,102.60
2023-07-07T22:35:39.731Z,84.72
2023-07-07T22:37:43.258Z,79.88
2023-07-07T22:39:48.512Z,89.00
2023-07-07T22:41:51.094Z,79.90
2023-07-07T22:43:54.929Z,72.72
2023-07-07T22:45:59.966Z,84.55
2023-07-07T22:48:02.559Z,70.53
2023-07-07T22:50:13.633Z,79.32
2023-07-07T22:52:20.908Z,93.30
2023-07-07T22:54:23.587Z,148.85
2023-07-07T22:56:32.088Z,72.35
2023-07-07T22:58:34.757Z,107.00
2023-07-07T23:00:38.319Z,123.90
2023-07-07T23:02:41.045Z,195.45
2023-07-07T23:04:43.708Z,321.08
2023-07-07T23:06:47.034Z,242.68
2023-07-07T23:09:00.739Z,126.50
2023-07-07T23:11:04.757Z,164.18
2023-07-07T23:13:09.906Z,109.43
2023-07-07T23:15:14.178Z,242.18
2023-07-07T23:17:20.797Z,99.68
2023-07-07T23:19:24.450Z,121.05
2023-07-07T23:21:29.796Z,118.85
2023-07-07T23:23:32.873Z,87.65
2023-07-07T23:25:35.477Z,89.90
2023-07-07T23:27:47.288Z,118.07
2023-07-07T23:29:53.777Z,117.38
2023-07-07T23:31:56.370Z,154.10
2023-07-07T23:33:59.607Z,144.43
2023-07-07T23:36:09.553Z,131.83
2023-07-07T23:38:13.630Z,171.65
2023-07-07T23:42:26.353Z,178.85
2023-07-07T23:44:28.936Z,128.40
2023-07-07T23:46:35.791Z,152.80
2023-07-07T23:48:38.517Z,157.73
2023-07-07T23:50:48.635Z,183.65
2023-07-07T23:52:51.438Z,251.07
2023-07-07T23:54:53.924Z,179.13
2023-07-07T23:56:58.369Z,356.63
2023-07-07T23:59:01.357Z,204.68
